createdAt,value
2023-03-20T00:02:00.537Z,66.71
2023-03-20T00:04:03.257Z,67.21
2023-03-20T00:06:06.248Z,67.26
2023-03-20T00:08:09.852Z,67.30
2023-03-20T00:10:12.649Z,67.03
2023-03-20T00:12:16.775Z,67.41
2023-03-20T00:14:22.442Z,67.64
2023-03-20T00:16:28.100Z,67.38
2023-03-20T00:18:32.091Z,66.77
2023-03-20T00:20:34.893Z,66.90
2023-03-20T00:22:37.837Z,66.34
2023-03-20T00:24:40.500Z,65.36
2023-03-20T00:26:44.525Z,65.81
2023-03-20T00:28:48.653Z,66.22
2023-03-20T00:30:51.934Z,66.46
2023-03-20T00:32:54.541Z,66.49
2023-03-20T00:34:58.487Z,67.35
2023-03-20T00:37:01.077Z,66.62
2023-03-20T00:39:04.506Z,66.38
2023-03-20T00:41:26.107Z,66.90
2023-03-20T00:43:29.051Z,65.97
2023-03-20T00:45:35.164Z,65.97
2023-03-20T00:47:41.361Z,65.95
2023-03-20T00:49:45.691Z,66.62
2023-03-20T00:51:50.060Z,66.97
2023-03-20T00:53:52.627Z,66.50
2023-03-20T00:55:55.323Z,65.99
2023-03-20T00:58:00.174Z,65.65
2023-03-20T01:00:07.560Z,66.30
2023-03-20T01:02:12.905Z,65.15
2023-03-20T01:04:19.244Z,65.81
2023-03-20T01:06:22.966Z,66.20
2023-03-20T01:08:27.405Z,66.50
2023-03-20T01:10:34.111Z,66.69
2023-03-20T01:12:36.753Z,66.80
2023-03-20T01:14:39.319Z,66.93
2023-03-20T01:16:42.266Z,66.71
2023-03-20T01:18:44.840Z,67.15
2023-03-20T01:20:48.465Z,66.84
2023-03-20T01:22:51.416Z,66.76
2023-03-20T01:24:55.323Z,66.89
2023-03-20T01:26:58.278Z,66.99
2023-03-20T01:29:00.952Z,67.09
2023-03-20T01:31:03.622Z,67.08
2023-03-20T01:33:14.423Z,67.29
2023-03-20T01:35:19.189Z,67.79
2023-03-20T01:37:26.916Z,67.52
2023-03-20T01:39:33.615Z,67.52
2023-03-20T01:41:37.743Z,67.16
2023-03-20T01:43:40.787Z,67.02
2023-03-20T01:45:53.689Z,67.13
2023-03-20T01:47:58.719Z,67.36
2023-03-20T01:50:22.402Z,67.06
2023-03-20T01:52:25.163Z,66.87
2023-03-20T01:54:31.852Z,67.00
2023-03-20T01:56:40.026Z,66.84
2023-03-20T01:58:45.839Z,66.83
2023-03-20T02:00:49.875Z,66.63
2023-03-20T02:02:52.619Z,66.62
2023-03-20T02:04:58.535Z,66.55
2023-03-20T02:07:01.281Z,67.02
2023-03-20T02:09:04.418Z,66.81
2023-03-20T02:11:07.591Z,66.75
2023-03-20T02:13:11.948Z,66.41
2023-03-20T02:15:17.086Z,66.89
2023-03-20T02:17:20.277Z,65.94
2023-03-20T02:19:29.170Z,66.48
2023-03-20T02:22:19.377Z,66.51
2023-03-20T02:24:55.855Z,66.39
2023-03-20T02:27:07.483Z,66.25
2023-03-20T02:29:58.023Z,66.38
2023-03-20T02:32:36.402Z,66.38
2023-03-20T02:34:57.901Z,66.82
2023-03-20T02:37:29.443Z,66.71
2023-03-20T02:39:52.761Z,67.06
2023-03-20T02:42:00.198Z,66.88
2023-03-20T02:44:09.710Z,67.15
2023-03-20T02:46:20.474Z,67.41
2023-03-20T02:48:33.981Z,66.70
2023-03-20T02:50:44.533Z,67.08
2023-03-20T02:52:57.802Z,67.53
2023-03-20T02:55:15.925Z,67.07
2023-03-20T02:57:23.345Z,67.17
2023-03-20T02:59:34.268Z,67.42
2023-03-20T03:01:42.695Z,67.31
2023-03-20T03:03:50.394Z,67.43
2023-03-20T03:05:56.990Z,67.71
2023-03-20T03:08:03.544Z,67.89
2023-03-20T03:10:12.444Z,67.76
2023-03-20T03:12:18.974Z,68.01
2023-03-20T03:14:31.280Z,68.10
2023-03-20T03:16:36.912Z,68.39
2023-03-20T03:18:42.091Z,68.33
2023-03-20T03:20:47.752Z,68.88
2023-03-20T03:22:51.342Z,68.38
2023-03-20T03:24:56.092Z,68.04
2023-03-20T03:27:01.591Z,68.21
2023-03-20T03:29:10.998Z,68.21
2023-03-20T03:31:17.587Z,68.01
2023-03-20T03:33:23.383Z,68.48
2023-03-20T03:35:26.195Z,68.22
2023-03-20T03:37:42.499Z,68.46
2023-03-20T03:39:53.180Z,67.92
2023-03-20T03:42:05.921Z,67.78
2023-03-20T03:44:15.033Z,68.46
2023-03-20T03:46:23.704Z,67.83
2023-03-20T03:48:32.050Z,69.01
2023-03-20T03:50:46.359Z,68.40
2023-03-20T03:52:52.587Z,68.34
2023-03-20T03:54:59.111Z,68.89
2023-03-20T03:57:05.127Z,68.63
2023-03-20T03:59:12.359Z,68.22
2023-03-20T04:01:17.604Z,68.33
2023-03-20T04:03:24.057Z,68.49
2023-03-20T04:05:31.920Z,68.77
2023-03-20T04:07:34.620Z,69.27
2023-03-20T04:09:37.404Z,68.95
2023-03-20T04:11:40.054Z,69.51
2023-03-20T04:13:44.375Z,69.24
2023-03-20T04:15:47.304Z,68.87
2023-03-20T04:17:50.076Z,68.99
2023-03-20T04:19:52.762Z,68.93
2023-03-20T04:21:56.004Z,69.02
2023-03-20T04:23:58.586Z,68.39
2023-03-20T04:26:01.842Z,68.75
2023-03-20T04:28:05.039Z,68.76
2023-03-20T04:30:10.593Z,68.78
2023-03-20T04:32:13.516Z,68.82
2023-03-20T04:34:16.331Z,68.91
2023-03-20T04:36:18.956Z,69.19
2023-03-20T04:38:23.065Z,68.91
2023-03-20T04:40:26.024Z,68.43
2023-03-20T04:42:28.569Z,67.26
2023-03-20T04:44:31.197Z,68.11
2023-03-20T04:46:35.154Z,67.94
2023-03-20T04:48:37.717Z,68.55
2023-03-20T04:50:40.371Z,68.75
2023-03-20T04:52:43.039Z,68.72
2023-03-20T04:54:45.910Z,68.49
2023-03-20T04:56:48.770Z,68.98
2023-03-20T04:58:51.576Z,68.22
2023-03-20T05:00:54.278Z,68.17
2023-03-20T05:02:58.315Z,68.21
2023-03-20T05:05:01.184Z,67.78
2023-03-20T05:07:03.807Z,68.07
2023-03-20T05:09:06.882Z,67.61
2023-03-20T05:11:09.452Z,67.77
2023-03-20T05:13:12.018Z,66.81
2023-03-20T05:15:15.158Z,66.71
2023-03-20T05:17:18.276Z,66.95
2023-03-20T05:19:22.284Z,66.76
2023-03-20T05:21:24.884Z,67.04
2023-03-20T05:23:27.446Z,67.47
2023-03-20T05:25:30.000Z,67.47
2023-03-20T05:27:32.585Z,67.64
2023-03-20T05:29:35.300Z,67.86
2023-03-20T05:31:37.867Z,67.84
2023-03-20T05:33:40.487Z,67.60
2023-03-20T05:35:44.747Z,67.88
2023-03-20T05:37:47.365Z,67.66
2023-03-20T05:39:49.906Z,67.20
2023-03-20T05:41:52.481Z,67.29
2023-03-20T05:43:55.497Z,66.60
2023-03-20T05:45:58.124Z,67.13
2023-03-20T05:48:00.925Z,66.89
2023-03-20T05:50:03.651Z,67.17
2023-03-20T05:52:07.967Z,66.76
2023-03-20T05:54:10.906Z,67.09
2023-03-20T05:56:16.405Z,66.99
2023-03-20T05:58:18.962Z,65.85
2023-03-20T06:00:21.966Z,66.81
2023-03-20T06:02:24.834Z,66.36
2023-03-20T06:04:27.400Z,66.50
2023-03-20T06:06:29.969Z,66.77
2023-03-20T06:08:36.391Z,66.54
2023-03-20T06:10:38.991Z,67.21
2023-03-20T06:12:41.559Z,66.97
2023-03-20T06:14:44.160Z,66.64
2023-03-20T06:16:46.841Z,66.98
2023-03-20T06:18:49.391Z,67.17
2023-03-20T06:20:53.803Z,66.81
2023-03-20T06:22:56.465Z,65.95
2023-03-20T06:25:00.401Z,66.55
2023-03-20T06:27:02.943Z,66.53
2023-03-20T06:29:06.201Z,66.01
2023-03-20T06:31:10.008Z,66.36
2023-03-20T06:33:12.733Z,66.32
2023-03-20T06:35:15.713Z,65.87
2023-03-20T06:37:18.264Z,65.93
2023-03-20T06:39:20.881Z,66.22
2023-03-20T06:41:34.223Z,65.76
2023-03-20T06:43:37.726Z,66.45
2023-03-20T06:45:40.758Z,66.92
2023-03-20T06:47:43.661Z,67.07
2023-03-20T06:49:46.261Z,67.40
2023-03-20T06:51:48.963Z,66.06
2023-03-20T06:53:51.609Z,66.14
2023-03-20T06:55:54.768Z,66.51
2023-03-20T06:57:58.695Z,66.39
2023-03-20T07:00:01.399Z,65.80
2023-03-20T07:02:04.036Z,65.87
2023-03-20T07:04:07.568Z,65.88
2023-03-20T07:06:11.660Z,65.77
2023-03-20T07:08:15.108Z,66.40
2023-03-20T07:10:18.264Z,65.72
2023-03-20T07:12:20.867Z,66.43
2023-03-20T07:14:24.913Z,65.94
2023-03-20T07:16:27.875Z,66.72
2023-03-20T07:18:30.916Z,66.48
2023-03-20T07:20:33.476Z,66.51
2023-03-20T07:22:36.060Z,66.15
2023-03-20T07:24:38.645Z,65.27
2023-03-20T07:26:41.273Z,64.47
2023-03-20T07:28:43.881Z,64.63
2023-03-20T07:30:47.800Z,64.04
2023-03-20T07:32:50.490Z,64.22
2023-03-20T07:34:53.124Z,64.34
2023-03-20T07:36:56.352Z,64.30
2023-03-20T07:38:58.914Z,64.49
2023-03-20T07:41:01.495Z,63.72
2023-03-20T07:43:04.075Z,64.06
2023-03-20T07:45:07.839Z,64.33
2023-03-20T07:47:11.769Z,64.48
2023-03-20T07:49:14.423Z,64.26
2023-03-20T07:51:16.966Z,64.33
2023-03-20T07:53:19.576Z,63.49
2023-03-20T07:55:22.256Z,63.17
2023-03-20T07:57:24.928Z,63.51
2023-03-20T07:59:27.662Z,63.74
2023-03-20T08:01:30.412Z,63.51
2023-03-20T08:03:34.550Z,64.08
2023-03-20T08:05:37.567Z,64.25
2023-03-20T08:07:40.534Z,64.61
2023-03-20T08:09:43.215Z,64.87
2023-03-20T08:11:46.088Z,65.10
2023-03-20T08:13:49.023Z,64.33
2023-03-20T08:15:51.760Z,64.09
2023-03-20T08:17:54.328Z,63.76
2023-03-20T08:19:58.229Z,64.39
2023-03-20T08:22:00.864Z,64.34
2023-03-20T08:24:03.428Z,63.94
2023-03-20T08:26:06.250Z,64.18
2023-03-20T08:28:08.873Z,63.05
2023-03-20T08:30:13.925Z,62.81
2023-03-20T08:32:16.679Z,63.16
2023-03-20T08:34:19.425Z,63.34
2023-03-20T08:36:23.441Z,63.01
2023-03-20T08:38:26.624Z,63.32
2023-03-20T08:40:29.567Z,63.31
2023-03-20T08:42:32.124Z,62.58
2023-03-20T08:44:34.690Z,62.69
2023-03-20T08:46:37.338Z,63.03
2023-03-20T08:48:40.062Z,62.40
2023-03-20T08:50:42.976Z,62.61
2023-03-20T08:52:47.050Z,62.58
2023-03-20T08:54:49.779Z,62.70
2023-03-20T08:56:52.403Z,62.19
2023-03-20T08:58:56.174Z,62.44
2023-03-20T09:01:02.993Z,62.79
2023-03-20T09:03:05.862Z,62.74
2023-03-20T09:05:09.269Z,62.90
2023-03-20T09:07:11.879Z,63.06
2023-03-20T09:09:18.497Z,62.57
2023-03-20T09:11:21.119Z,61.80
2023-03-20T09:13:27.559Z,62.49
2023-03-20T09:15:30.527Z,61.40
2023-03-20T09:17:33.302Z,60.75
2023-03-20T09:19:39.415Z,60.90
2023-03-20T09:21:42.063Z,60.86
2023-03-20T09:23:44.675Z,60.52
2023-03-20T09:25:49.424Z,60.08
2023-03-20T09:27:55.174Z,60.60
2023-03-20T09:29:57.743Z,60.32
2023-03-20T09:32:00.339Z,60.80
2023-03-20T09:34:02.922Z,60.66
2023-03-20T09:36:06.228Z,60.83
2023-03-20T09:38:09.037Z,61.16
2023-03-20T09:40:23.985Z,59.72
2023-03-20T09:42:39.807Z,59.89
2023-03-20T09:44:52.405Z,59.49
2023-03-20T09:47:19.398Z,58.89
2023-03-20T09:49:32.995Z,59.61
2023-03-20T09:51:42.815Z,58.78
2023-03-20T09:53:53.074Z,58.50
2023-03-20T09:55:59.850Z,58.67
2023-03-20T09:58:11.269Z,55.78
2023-03-20T10:00:17.524Z,56.33
2023-03-20T10:02:26.428Z,55.36
2023-03-20T10:04:31.100Z,55.41
2023-03-20T10:06:34.570Z,56.25
2023-03-20T10:08:38.900Z,56.84
2023-03-20T10:10:51.531Z,56.99
2023-03-20T10:13:08.735Z,57.33
2023-03-20T10:15:22.700Z,57.57
2023-03-20T10:17:36.154Z,57.98
2023-03-20T10:19:44.632Z,56.84
2023-03-20T10:21:49.459Z,56.06
2023-03-20T10:24:01.129Z,56.50
2023-03-20T10:26:07.786Z,56.90
2023-03-20T10:28:14.444Z,57.48
2023-03-20T10:30:28.172Z,57.45
2023-03-20T10:32:37.646Z,56.98
2023-03-20T10:34:54.583Z,57.73
2023-03-20T10:37:10.727Z,58.17
2023-03-20T10:39:20.784Z,58.61
2023-03-20T10:41:29.639Z,58.48
2023-03-20T10:43:38.697Z,58.21
2023-03-20T10:45:47.440Z,58.65
2023-03-20T10:47:53.560Z,58.30
2023-03-20T10:49:59.527Z,58.09
2023-03-20T10:52:04.956Z,58.48
2023-03-20T10:54:20.355Z,58.44
2023-03-20T10:56:30.050Z,57.25
2023-03-20T10:58:35.242Z,57.49
2023-03-20T11:00:38.226Z,55.87
2023-03-20T11:02:42.400Z,56.32
2023-03-20T11:04:45.546Z,56.78
2023-03-20T11:06:56.687Z,56.92
2023-03-20T11:09:12.577Z,56.17
2023-03-20T11:11:15.821Z,54.43
2023-03-20T11:13:27.592Z,54.24
2023-03-20T11:15:34.007Z,54.55
2023-03-20T11:17:36.552Z,53.91
2023-03-20T11:19:42.852Z,54.84
2023-03-20T11:21:48.480Z,54.84
2023-03-20T11:23:51.926Z,55.04
2023-03-20T11:25:59.804Z,54.17
2023-03-20T11:28:21.181Z,53.22
2023-03-20T11:30:24.354Z,53.55
2023-03-20T11:32:31.176Z,53.61
2023-03-20T11:34:37.807Z,53.15
2023-03-20T11:36:53.056Z,53.50
2023-03-20T11:39:08.139Z,52.40
2023-03-20T11:41:18.537Z,52.43
2023-03-20T11:43:23.577Z,50.41
2023-03-20T11:45:27.179Z,50.59
2023-03-20T11:47:34.495Z,51.12
2023-03-20T11:49:47.896Z,50.91
2023-03-20T11:51:53.525Z,51.15
2023-03-20T11:54:01.957Z,50.01
2023-03-20T11:56:10.863Z,49.47
2023-03-20T11:58:18.156Z,49.55
2023-03-20T12:00:24.044Z,48.88
2023-03-20T12:02:27.218Z,49.30
2023-03-20T12:04:32.182Z,50.20
2023-03-20T12:06:44.493Z,50.53
2023-03-20T12:08:53.292Z,50.86
2023-03-20T12:11:00.588Z,50.10
2023-03-20T12:13:07.823Z,50.65
2023-03-20T12:15:19.811Z,50.39
2023-03-20T12:17:35.231Z,50.45
2023-03-20T12:19:39.783Z,50.31
2023-03-20T12:21:48.523Z,49.89
2023-03-20T12:23:57.428Z,50.07
2023-03-20T12:26:04.207Z,49.75
2023-03-20T12:28:15.461Z,49.64
2023-03-20T12:30:23.933Z,50.68
2023-03-20T12:32:37.437Z,50.03
2023-03-20T12:34:46.939Z,50.73
2023-03-20T12:36:52.915Z,50.51
2023-03-20T12:38:56.875Z,50.71
2023-03-20T12:41:06.639Z,50.19
2023-03-20T12:43:16.782Z,50.70
2023-03-20T12:45:22.069Z,51.07
2023-03-20T12:47:49.968Z,50.89
2023-03-20T12:50:05.256Z,49.53
2023-03-20T12:52:15.009Z,49.62
2023-03-20T12:54:30.928Z,49.03
2023-03-20T12:56:51.455Z,50.17
2023-03-20T12:59:00.484Z,49.50
2023-03-20T13:01:05.724Z,50.64
2023-03-20T13:03:24.377Z,50.79
2023-03-20T13:05:38.345Z,50.04
2023-03-20T13:07:54.454Z,49.70
2023-03-20T13:10:09.343Z,50.44
2023-03-20T13:12:21.683Z,50.62
2023-03-20T13:14:31.368Z,50.88
2023-03-20T13:16:43.298Z,50.58
2023-03-20T13:18:59.783Z,50.39
2023-03-20T13:21:10.609Z,49.77
2023-03-20T13:23:22.166Z,49.14
2023-03-20T13:25:46.480Z,49.92
2023-03-20T13:27:54.966Z,49.26
2023-03-20T13:30:02.748Z,48.84
2023-03-20T13:32:20.209Z,49.31
2023-03-20T13:34:32.782Z,48.67
2023-03-20T13:36:48.398Z,49.19
2023-03-20T13:38:57.028Z,49.03
2023-03-20T13:41:04.305Z,49.10
2023-03-20T13:43:20.639Z,49.91
2023-03-20T13:45:32.020Z,49.75
2023-03-20T13:47:37.331Z,49.17
2023-03-20T13:49:44.772Z,48.13
2023-03-20T13:51:54.807Z,48.79
2023-03-20T13:54:08.391Z,48.34
2023-03-20T13:56:23.582Z,48.10
2023-03-20T13:58:44.595Z,46.00
2023-03-20T14:00:51.146Z,45.56
2023-03-20T14:03:16.144Z,45.31
2023-03-20T14:05:21.527Z,44.24
2023-03-20T14:07:32.523Z,43.83
2023-03-20T14:09:36.422Z,43.47
2023-03-20T14:11:40.537Z,42.80
2023-03-20T14:13:47.260Z,43.32
2023-03-20T14:15:55.894Z,43.16
2023-03-20T14:17:58.919Z,44.49
2023-03-20T14:20:15.020Z,44.12
2023-03-20T14:22:21.093Z,44.45
2023-03-20T14:24:27.511Z,44.23
2023-03-20T14:26:32.446Z,44.50
2023-03-20T14:28:52.954Z,43.71
2023-03-20T14:31:21.282Z,43.08
2023-03-20T14:33:27.570Z,43.65
2023-03-20T14:35:30.414Z,43.32
2023-03-20T14:38:00.012Z,43.26
2023-03-20T14:40:08.370Z,43.36
2023-03-20T14:42:32.359Z,43.37
2023-03-20T14:44:52.260Z,42.34
2023-03-20T14:47:02.766Z,43.04
2023-03-20T14:49:23.878Z,42.81
2023-03-20T14:51:35.603Z,43.18
2023-03-20T14:53:40.729Z,43.24
2023-03-20T14:55:58.025Z,42.98
2023-03-20T14:58:06.326Z,43.56
2023-03-20T15:00:23.810Z,42.67
2023-03-20T15:02:28.590Z,43.36
2023-03-20T15:04:38.286Z,43.68
2023-03-20T15:06:46.605Z,44.38
2023-03-20T15:08:52.977Z,44.54
2023-03-20T15:10:57.771Z,44.19
2023-03-20T15:13:01.136Z,45.07
2023-03-20T15:15:05.740Z,45.07
2023-03-20T15:17:19.260Z,45.43
2023-03-20T15:19:21.844Z,46.23
2023-03-20T15:21:33.370Z,45.93
2023-03-20T15:23:35.920Z,45.71
2023-03-20T15:25:41.331Z,45.50
2023-03-20T15:27:44.322Z,45.78
2023-03-20T15:29:50.788Z,45.46
2023-03-20T15:32:12.376Z,46.21
2023-03-20T15:34:22.004Z,46.55
2023-03-20T15:36:28.772Z,46.73
2023-03-20T15:38:35.304Z,47.29
2023-03-20T15:40:50.485Z,46.70
2023-03-20T15:42:54.796Z,46.89
2023-03-20T15:44:57.582Z,47.24
2023-03-20T15:47:02.371Z,46.65
2023-03-20T15:49:05.960Z,46.94
2023-03-20T15:51:12.316Z,47.19
2023-03-20T15:53:19.227Z,47.96
2023-03-20T15:55:25.092Z,47.97
2023-03-20T15:57:35.558Z,47.75
2023-03-20T15:59:38.711Z,48.44
2023-03-20T16:01:41.740Z,48.86
2023-03-20T16:03:44.852Z,48.47
2023-03-20T16:05:50.398Z,49.14
2023-03-20T16:07:54.416Z,49.70
2023-03-20T16:09:57.025Z,49.74
2023-03-20T16:12:01.262Z,49.03
2023-03-20T16:14:04.861Z,49.22
2023-03-20T16:16:12.744Z,49.23
2023-03-20T16:18:17.534Z,48.73
2023-03-20T16:20:20.478Z,48.58
2023-03-20T16:22:26.420Z,48.95
2023-03-20T16:24:35.880Z,49.50
2023-03-20T16:26:41.971Z,48.98
2023-03-20T16:28:47.227Z,49.18
2023-03-20T16:30:51.994Z,49.21
2023-03-20T16:32:59.930Z,48.98
2023-03-20T16:35:06.821Z,49.01
2023-03-20T16:37:23.449Z,49.38
2023-03-20T16:39:29.035Z,49.38
2023-03-20T16:41:35.023Z,49.00
2023-03-20T16:43:39.748Z,49.50
2023-03-20T16:45:45.008Z,49.60
2023-03-20T16:47:50.065Z,49.83
2023-03-20T16:50:16.735Z,49.37
2023-03-20T16:52:26.419Z,49.12
2023-03-20T16:54:32.887Z,49.17
2023-03-20T16:56:40.412Z,48.94
2023-03-20T16:58:46.838Z,49.00
2023-03-20T17:00:57.904Z,49.47
2023-03-20T17:03:08.281Z,50.30
2023-03-20T17:05:14.500Z,50.19
2023-03-20T17:07:19.419Z,49.97
2023-03-20T17:09:25.003Z,50.17
2023-03-20T17:11:32.783Z,50.26
2023-03-20T17:13:36.702Z,49.76
2023-03-20T17:15:39.344Z,49.65
2023-03-20T17:17:42.032Z,49.73
2023-03-20T17:19:44.852Z,49.58
2023-03-20T17:21:48.645Z,50.21
2023-03-20T17:23:51.285Z,50.08
2023-03-20T17:25:55.053Z,50.23
2023-03-20T17:27:57.668Z,50.06
2023-03-20T17:30:01.611Z,50.04
2023-03-20T17:32:09.877Z,50.65
2023-03-20T17:34:14.650Z,50.43
2023-03-20T17:36:20.257Z,50.56
2023-03-20T17:38:23.593Z,51.00
2023-03-20T17:40:26.975Z,50.99
2023-03-20T17:42:31.698Z,50.78
2023-03-20T17:44:34.266Z,51.08
2023-03-20T17:46:56.146Z,51.42
2023-03-20T17:49:03.267Z,51.96
2023-03-20T17:51:07.861Z,52.31
2023-03-20T17:53:15.643Z,52.84
2023-03-20T17:55:18.442Z,53.15
2023-03-20T17:57:23.432Z,53.03
2023-03-20T17:59:28.713Z,53.45
2023-03-20T18:01:32.850Z,53.41
2023-03-20T18:03:36.936Z,53.87
2023-03-20T18:05:40.039Z,53.73
2023-03-20T18:07:42.747Z,54.07
2023-03-20T18:09:46.521Z,53.60
2023-03-20T18:11:49.063Z,53.73
2023-03-20T18:13:51.780Z,53.59
2023-03-20T18:15:56.221Z,54.17
2023-03-20T18:17:58.851Z,54.04
2023-03-20T18:20:02.820Z,54.27
2023-03-20T18:22:06.017Z,54.49
2023-03-20T18:24:08.657Z,54.40
2023-03-20T18:26:18.655Z,54.71
2023-03-20T18:28:22.977Z,54.76
2023-03-20T18:30:28.081Z,54.84
2023-03-20T18:32:30.680Z,54.61
2023-03-20T18:34:34.031Z,54.61
2023-03-20T18:36:38.009Z,54.48
2023-03-20T18:38:40.557Z,54.50
2023-03-20T18:40:47.088Z,54.58
2023-03-20T18:42:49.747Z,54.22
2023-03-20T18:44:52.280Z,54.23
2023-03-20T18:46:54.850Z,54.80
2023-03-20T18:48:57.997Z,54.68
2023-03-20T18:51:01.765Z,54.41
2023-03-20T18:53:07.701Z,54.02
2023-03-20T18:55:10.722Z,54.33
2023-03-20T18:57:17.319Z,54.38
2023-03-20T18:59:19.860Z,54.39
2023-03-20T19:01:22.818Z,54.78
2023-03-20T19:03:25.532Z,55.05
2023-03-20T19:05:29.566Z,54.74
2023-03-20T19:07:32.153Z,54.61
2023-03-20T19:09:36.160Z,55.05
2023-03-20T19:11:38.771Z,55.34
2023-03-20T19:13:41.359Z,55.19
2023-03-20T19:15:45.112Z,55.20
2023-03-20T19:17:48.980Z,55.34
2023-03-20T19:19:51.526Z,55.10
2023-03-20T19:21:57.003Z,55.46
2023-03-20T19:24:01.235Z,55.43
2023-03-20T19:26:07.364Z,55.61
2023-03-20T19:28:21.946Z,55.49
2023-03-20T19:30:32.070Z,55.93
2023-03-20T19:32:34.639Z,56.35
2023-03-20T19:35:31.101Z,56.45
2023-03-20T19:36:59.767Z,56.89
2023-03-20T19:39:05.036Z,57.06
2023-03-20T19:41:09.567Z,56.70
2023-03-20T19:43:12.182Z,56.72
2023-03-20T19:45:14.973Z,56.90
2023-03-20T19:47:17.577Z,56.84
2023-03-20T19:49:23.552Z,56.65
2023-03-20T19:51:32.925Z,56.97
2023-03-20T19:53:35.462Z,57.07
2023-03-20T19:55:38.900Z,57.31
2023-03-20T19:57:42.943Z,57.42
2023-03-20T19:59:45.637Z,57.85
2023-03-20T20:01:48.269Z,57.59
2023-03-20T20:03:53.508Z,57.83
2023-03-20T20:05:56.294Z,58.00
2023-03-20T20:08:23.235Z,57.76
2023-03-20T20:10:23.813Z,57.47
2023-03-20T20:12:26.398Z,57.30
2023-03-20T20:14:30.376Z,56.87
2023-03-20T20:16:32.984Z,56.82
2023-03-20T20:18:35.647Z,57.03
2023-03-20T20:21:18.492Z,57.26
2023-03-20T20:23:01.038Z,57.97
2023-03-20T20:25:03.710Z,58.45
2023-03-20T20:27:16.896Z,58.06
2023-03-20T20:29:21.689Z,58.12
2023-03-20T20:31:29.995Z,57.84
2023-03-20T20:33:34.256Z,57.89
2023-03-20T20:36:01.448Z,57.73
2023-03-20T20:40:24.734Z,57.88
2023-03-20T20:42:27.332Z,58.29
2023-03-20T20:44:30.132Z,58.61
2023-03-20T20:46:34.705Z,58.78
2023-03-20T20:48:40.070Z,58.61
2023-03-20T20:50:46.508Z,58.94
2023-03-20T20:52:49.256Z,58.62
2023-03-20T20:54:51.914Z,59.10
2023-03-20T20:56:57.430Z,58.81
2023-03-20T20:58:59.998Z,58.95
2023-03-20T21:01:02.741Z,59.39
2023-03-20T21:03:06.763Z,59.37
2023-03-20T21:05:10.724Z,59.09
2023-03-20T21:07:14.279Z,59.40
2023-03-20T21:09:16.883Z,59.22
2023-03-20T21:11:19.475Z,59.26
2023-03-20T21:13:22.189Z,59.45
2023-03-20T21:15:25.213Z,59.44
2023-03-20T21:17:28.721Z,59.61
2023-03-20T21:19:35.660Z,60.21
2023-03-20T21:21:39.214Z,60.08
2023-03-20T21:23:42.176Z,59.78
2023-03-20T21:25:48.010Z,59.54
2023-03-20T21:27:50.906Z,59.69
2023-03-20T21:29:53.488Z,59.97
2023-03-20T21:31:56.169Z,60.04
2023-03-20T21:34:00.016Z,59.65
2023-03-20T21:36:04.770Z,59.58
2023-03-20T21:40:29.989Z,59.78
2023-03-20T21:42:32.540Z,60.11
2023-03-20T21:45:21.664Z,60.21
2023-03-20T21:47:48.548Z,60.21
2023-03-20T21:54:56.820Z,60.76
2023-03-20T21:57:07.980Z,60.32
2023-03-20T22:01:49.365Z,60.25
2023-03-20T22:06:53.852Z,60.46
2023-03-20T22:09:19.787Z,60.19
2023-03-20T22:11:35.034Z,60.47
2023-03-20T22:18:38.412Z,61.36
2023-03-20T22:21:13.390Z,61.06
2023-03-20T22:28:06.989Z,61.20
2023-03-20T22:32:59.429Z,61.20
2023-03-20T22:37:53.341Z,61.11
2023-03-20T22:46:49.989Z,61.47
2023-03-20T22:48:52.630Z,61.49
2023-03-20T22:50:55.209Z,61.54
2023-03-20T22:52:57.775Z,61.92
2023-03-20T22:55:00.380Z,62.27
2023-03-20T22:57:04.337Z,62.43
2023-03-20T22:59:06.908Z,62.40
2023-03-20T23:01:10.701Z,62.17
2023-03-20T23:03:22.743Z,62.45
2023-03-20T23:05:37.367Z,62.59
2023-03-20T23:07:40.679Z,62.25
2023-03-20T23:09:43.490Z,62.43
2023-03-20T23:11:46.213Z,62.23
2023-03-20T23:13:50.418Z,62.36
2023-03-20T23:15:53.060Z,62.23
2023-03-20T23:17:55.670Z,62.54
2023-03-20T23:20:10.457Z,62.24
2023-03-20T23:22:14.333Z,62.50
2023-03-20T23:24:16.930Z,62.02
2023-03-20T23:26:21.910Z,62.36
2023-03-20T23:28:24.488Z,62.01
2023-03-20T23:30:37.940Z,62.14
2023-03-20T23:32:46.446Z,61.89
2023-03-20T23:34:49.028Z,62.25
2023-03-20T23:36:51.641Z,62.14
2023-03-20T23:38:54.279Z,62.21
2023-03-20T23:40:57.795Z,62.64
2023-03-20T23:43:00.469Z,62.82
2023-03-20T23:45:17.102Z,62.62
2023-03-20T23:47:21.509Z,62.71
2023-03-20T23:49:24.928Z,62.77
2023-03-20T23:51:27.627Z,62.78
2023-03-20T23:53:30.492Z,63.00
2023-03-20T23:55:35.416Z,62.91
2023-03-20T23:57:38.138Z,63.32
2023-03-20T23:59:40.810Z,63.45
